Time,TemperatureF,DewpointF,PressureIn,WindDirection,WindDirectionDegrees,WindSpeedMPH,WindSpeedGustMPH,Humidity,HourlyPrecipIn,Conditions,Clouds,dailyrainin,SolarRadiationWatts/m^2,SoftwareType,DateUTC
2013-07-13 00:11:00,88.0,66.0,-100.00,South,171,3.0,7.0,49,0.00,,,0.00,0.000000,,2013-07-13 07:11:00,
2013-07-13 00:22:00,88.0,66.0,-100.00,South,171,3.0,7.0,49,0.00,,,0.00,0.000000,,2013-07-13 07:22:00,
2013-07-13 00:33:00,88.0,66.0,-100.00,South,171,3.0,7.0,49,0.00,,,0.00,0.000000,,2013-07-13 07:33:00,
2013-07-13 00:44:00,88.0,66.0,-100.00,South,171,3.0,7.0,49,0.00,,,0.00,0.000000,,2013-07-13 07:44:00,
2013-07-13 01:22:00,87.0,65.0,-100.00,SSW,193,5.0,7.0,48,0.00,,,0.00,0.000000,,2013-07-13 08:22:00,
2013-07-13 01:33:00,87.0,65.0,-100.00,SSW,193,5.0,7.0,48,0.00,,,0.00,0.000000,,2013-07-13 08:33:00,
2013-07-13 01:43:00,87.0,65.0,-100.00,SSW,193,5.0,7.0,48,0.00,,,0.00,0.000000,,2013-07-13 08:43:00,
2013-07-13 02:11:00,86.0,65.0,-100.00,SSW,201,4.0,6.0,50,0.00,,,0.00,0.000000,,2013-07-13 09:11:00,
2013-07-13 02:22:00,86.0,65.0,-100.00,SSW,201,4.0,6.0,50,0.00,,,0.00,0.000000,,2013-07-13 09:22:00,
2013-07-13 02:32:00,86.0,65.0,-100.00,SSW,201,4.0,6.0,50,0.00,,,0.00,0.000000,,2013-07-13 09:32:00,
2013-07-13 02:42:00,86.0,65.0,-100.00,SSW,201,4.0,6.0,50,0.00,,,0.00,0.000000,,2013-07-13 09:42:00,
2013-07-13 03:11:00,84.0,64.0,-100.00,South,179,4.0,7.0,52,0.00,,,0.00,0.000000,,2013-07-13 10:11:00,
2013-07-13 03:22:00,84.0,64.0,-100.00,South,179,4.0,7.0,52,0.00,,,0.00,0.000000,,2013-07-13 10:22:00,
2013-07-13 03:32:00,84.0,64.0,-100.00,South,179,4.0,7.0,52,0.00,,,0.00,0.000000,,2013-07-13 10:32:00,
2013-07-13 03:43:00,84.0,64.0,-100.00,South,179,4.0,7.0,52,0.00,,,0.00,0.000000,,2013-07-13 10:43:00,
2013-07-13 04:11:00,85.0,64.0,-100.00,South,173,5.0,8.0,49,0.00,,,0.00,0.000000,,2013-07-13 11:11:00,
2013-07-13 04:22:00,85.0,64.0,-100.00,South,173,5.0,8.0,49,0.00,,,0.00,0.000000,,2013-07-13 11:22:00,
2013-07-13 04:32:00,85.0,64.0,-100.00,South,173,5.0,8.0,49,0.00,,,0.00,0.000000,,2013-07-13 11:32:00,
2013-07-13 04:42:00,85.0,64.0,-100.00,South,173,5.0,8.0,49,0.00,,,0.00,0.000000,,2013-07-13 11:42:00,
2013-07-13 05:22:00,84.0,63.0,-100.00,SSE,163,4.0,7.0,50,0.00,,,0.00,0.000000,,2013-07-13 12:22:00,
2013-07-13 05:32:00,84.0,63.0,-100.00,SSE,163,4.0,7.0,50,0.00,,,0.00,0.000000,,2013-07-13 12:32:00,
2013-07-13 05:43:00,84.0,63.0,-100.00,SSE,163,4.0,7.0,50,0.00,,,0.00,0.000000,,2013-07-13 12:43:00,
2013-07-13 06:22:00,81.0,65.0,-100.00,SSE,153,4.0,7.0,58,0.00,,,0.00,2.000000,,2013-07-13 13:22:00,
2013-07-13 06:32:00,81.0,65.0,-100.00,SSE,153,4.0,7.0,58,0.00,,,0.00,2.000000,,2013-07-13 13:32:00,
2013-07-13 06:43:00,81.0,65.0,-100.00,SSE,153,4.0,7.0,58,0.00,,,0.00,2.000000,,2013-07-13 13:43:00,
2013-07-13 07:11:00,84.0,67.0,-100.00,South,186,4.0,6.0,57,0.00,,,0.00,66.000000,,2013-07-13 14:11:00,
2013-07-13 07:22:00,84.0,67.0,-100.00,South,186,4.0,6.0,57,0.00,,,0.00,66.000000,,2013-07-13 14:22:00,
2013-07-13 07:32:00,84.0,67.0,-100.00,South,186,4.0,6.0,57,0.00,,,0.00,66.000000,,2013-07-13 14:32:00,
2013-07-13 07:43:00,84.0,67.0,-100.00,South,186,4.0,6.0,57,0.00,,,0.00,66.000000,,2013-07-13 14:43:00,
2013-07-13 08:12:00,91.0,64.0,-100.00,South,172,5.0,9.0,41,0.00,,,0.00,320.000000,,2013-07-13 15:12:00,
2013-07-13 08:22:00,91.0,64.0,-100.00,South,172,5.0,9.0,41,0.00,,,0.00,320.000000,,2013-07-13 15:22:00,
2013-07-13 08:33:00,91.0,64.0,-100.00,South,172,5.0,9.0,41,0.00,,,0.00,320.000000,,2013-07-13 15:33:00,
2013-07-13 08:43:00,91.0,64.0,-100.00,South,172,5.0,9.0,41,0.00,,,0.00,320.000000,,2013-07-13 15:43:00,
2013-07-13 09:11:00,92.0,63.0,-100.00,South,169,6.0,11.0,39,0.00,,,0.00,412.000000,,2013-07-13 16:11:00,
2013-07-13 09:22:00,92.0,63.0,-100.00,South,169,6.0,11.0,39,0.00,,,0.00,412.000000,,2013-07-13 16:22:00,
2013-07-13 09:32:00,92.0,63.0,-100.00,South,169,6.0,11.0,39,0.00,,,0.00,412.000000,,2013-07-13 16:32:00,
2013-07-13 09:43:00,92.0,63.0,-100.00,South,169,6.0,11.0,39,0.00,,,0.00,412.000000,,2013-07-13 16:43:00,
2013-07-13 10:11:00,96.0,63.0,-100.00,South,179,8.0,12.0,34,0.00,,,0.00,585.000000,,2013-07-13 17:11:00,
2013-07-13 10:22:00,96.0,63.0,-100.00,South,179,8.0,12.0,34,0.00,,,0.00,585.000000,,2013-07-13 17:22:00,
2013-07-13 10:33:00,96.0,63.0,-100.00,South,179,8.0,12.0,34,0.00,,,0.00,585.000000,,2013-07-13 17:33:00,
2013-07-13 10:42:00,96.0,63.0,-100.00,South,179,8.0,12.0,34,0.00,,,0.00,585.000000,,2013-07-13 17:42:00,
2013-07-13 11:11:00,100.0,62.0,-100.00,South,172,6.0,10.0,29,0.00,,,0.00,696.000000,,2013-07-13 18:11:00,
2013-07-13 11:21:00,100.0,62.0,-100.00,South,172,6.0,10.0,29,0.00,,,0.00,696.000000,,2013-07-13 18:21:00,
2013-07-13 11:32:00,100.0,62.0,-100.00,South,172,6.0,10.0,29,0.00,,,0.00,696.000000,,2013-07-13 18:32:00,
2013-07-13 11:43:00,100.0,62.0,-100.00,South,172,6.0,10.0,29,0.00,,,0.00,696.000000,,2013-07-13 18:43:00,
2013-07-13 12:11:00,103.0,58.0,-100.00,SSE,167,6.0,14.0,23,0.00,,,0.00,961.000000,,2013-07-13 19:11:00,
2013-07-13 12:22:00,103.0,58.0,-100.00,SSE,167,6.0,14.0,23,0.00,,,0.00,961.000000,,2013-07-13 19:22:00,
2013-07-13 12:32:00,103.0,58.0,-100.00,SSE,167,6.0,14.0,23,0.00,,,0.00,961.000000,,2013-07-13 19:32:00,
2013-07-13 12:44:00,103.0,58.0,-100.00,SSE,167,6.0,14.0,23,0.00,,,0.00,961.000000,,2013-07-13 19:44:00,
2013-07-13 13:11:00,105.0,57.0,-100.00,SSE,161,6.0,16.0,21,0.00,,,0.00,959.000000,,2013-07-13 20:11:00,
2013-07-13 13:22:00,105.0,57.0,-100.00,SSE,161,6.0,16.0,21,0.00,,,0.00,959.000000,,2013-07-13 20:22:00,
2013-07-13 13:33:00,105.0,57.0,-100.00,SSE,161,6.0,16.0,21,0.00,,,0.00,959.000000,,2013-07-13 20:33:00,
2013-07-13 13:42:00,105.0,57.0,-100.00,SSE,161,6.0,16.0,21,0.00,,,0.00,959.000000,,2013-07-13 20:42:00,
2013-07-13 14:12:00,106.0,58.0,-100.00,SSE,165,6.0,12.0,21,0.00,,,0.00,1004.000000,,2013-07-13 21:12:00,
2013-07-13 14:22:00,106.0,58.0,-100.00,SSE,165,6.0,12.0,21,0.00,,,0.00,1004.000000,,2013-07-13 21:22:00,
2013-07-13 14:32:00,106.0,58.0,-100.00,SSE,165,6.0,12.0,21,0.00,,,0.00,1004.000000,,2013-07-13 21:32:00,
2013-07-13 14:42:00,106.0,58.0,-100.00,SSE,165,6.0,12.0,21,0.00,,,0.00,1004.000000,,2013-07-13 21:42:00,
2013-07-13 15:22:00,107.0,53.0,-100.00,SSE,167,6.0,12.0,17,0.00,,,0.00,941.000000,,2013-07-13 22:22:00,
2013-07-13 15:32:00,107.0,53.0,-100.00,SSE,167,6.0,12.0,17,0.00,,,0.00,941.000000,,2013-07-13 22:32:00,
2013-07-13 15:43:00,107.0,53.0,-100.00,SSE,167,6.0,12.0,17,0.00,,,0.00,941.000000,,2013-07-13 22:43:00,
2013-07-13 16:11:00,108.0,52.0,-100.00,SE,131,6.0,12.0,16,0.00,,,0.00,817.000000,,2013-07-13 23:11:00,
2013-07-13 16:22:00,108.0,52.0,-100.00,SE,131,6.0,12.0,16,0.00,,,0.00,817.000000,,2013-07-13 23:22:00,
2013-07-13 16:32:00,108.0,52.0,-100.00,SE,131,6.0,12.0,16,0.00,,,0.00,817.000000,,2013-07-13 23:32:00,
2013-07-13 16:42:00,108.0,52.0,-100.00,SE,131,6.0,12.0,16,0.00,,,0.00,817.000000,,2013-07-13 23:42:00,
2013-07-13 17:11:00,107.0,54.0,-100.00,SSE,150,6.0,11.0,18,0.00,,,0.00,639.000000,,2013-07-14 00:11:00,
2013-07-13 17:21:00,107.0,54.0,-100.00,SSE,150,6.0,11.0,18,0.00,,,0.00,639.000000,,2013-07-14 00:21:00,
2013-07-13 17:33:00,107.0,54.0,-100.00,SSE,150,6.0,11.0,18,0.00,,,0.00,639.000000,,2013-07-14 00:33:00,
2013-07-13 17:42:00,107.0,54.0,-100.00,SSE,150,6.0,11.0,18,0.00,,,0.00,639.000000,,2013-07-14 00:42:00,
2013-07-13 18:11:00,106.0,58.0,-100.00,SE,139,6.0,10.0,21,0.00,,,0.00,432.000000,,2013-07-14 01:11:00,
2013-07-13 18:22:00,106.0,58.0,-100.00,SE,139,6.0,10.0,21,0.00,,,0.00,432.000000,,2013-07-14 01:22:00,
2013-07-13 18:32:00,106.0,58.0,-100.00,SE,139,6.0,10.0,21,0.00,,,0.00,432.000000,,2013-07-14 01:32:00,
2013-07-13 18:43:00,106.0,58.0,-100.00,SE,139,6.0,10.0,21,0.00,,,0.00,432.000000,,2013-07-14 01:43:00,
2013-07-13 19:11:00,103.0,60.0,-100.00,SE,137,5.0,8.0,25,0.00,,,0.00,225.000000,,2013-07-14 02:11:00,
2013-07-13 19:22:00,103.0,60.0,-100.00,SE,137,5.0,8.0,25,0.00,,,0.00,225.000000,,2013-07-14 02:22:00,
2013-07-13 19:32:00,103.0,60.0,-100.00,SE,137,5.0,8.0,25,0.00,,,0.00,225.000000,,2013-07-14 02:32:00,
2013-07-13 19:43:00,103.0,60.0,-100.00,SE,137,5.0,8.0,25,0.00,,,0.00,225.000000,,2013-07-14 02:43:00,
2013-07-13 20:11:00,98.0,60.0,-100.00,SSE,155,5.0,7.0,29,0.00,,,0.00,54.000000,,2013-07-14 03:11:00,
2013-07-13 20:22:00,98.0,60.0,-100.00,SSE,155,5.0,7.0,29,0.00,,,0.00,54.000000,,2013-07-14 03:22:00,
2013-07-13 20:32:00,98.0,60.0,-100.00,SSE,155,5.0,7.0,29,0.00,,,0.00,54.000000,,2013-07-14 03:32:00,
2013-07-13 20:43:00,98.0,60.0,-100.00,SSE,155,5.0,7.0,29,0.00,,,0.00,54.000000,,2013-07-14 03:43:00,
2013-07-13 21:11:00,96.0,56.0,-100.00,SSW,193,6.0,9.0,26,0.00,,,0.00,2.000000,,2013-07-14 04:11:00,
2013-07-13 21:22:00,96.0,56.0,-100.00,SSW,193,6.0,9.0,26,0.00,,,0.00,2.000000,,2013-07-14 04:22:00,
2013-07-13 21:32:00,96.0,56.0,-100.00,SSW,193,6.0,9.0,26,0.00,,,0.00,2.000000,,2013-07-14 04:32:00,
2013-07-13 21:42:00,96.0,56.0,-100.00,SSW,193,6.0,9.0,26,0.00,,,0.00,2.000000,,2013-07-14 04:42:00,
2013-07-13 22:11:00,94.0,56.0,-100.00,SSW,192,5.0,11.0,28,0.00,,,0.00,0.000000,,2013-07-14 05:11:00,
2013-07-13 22:22:00,94.0,56.0,-100.00,SSW,192,5.0,11.0,28,0.00,,,0.00,0.000000,,2013-07-14 05:22:00,
2013-07-13 22:32:00,94.0,56.0,-100.00,SSW,192,5.0,11.0,28,0.00,,,0.00,0.000000,,2013-07-14 05:32:00,
2013-07-13 22:43:00,94.0,56.0,-100.00,SSW,192,5.0,11.0,28,0.00,,,0.00,0.000000,,2013-07-14 05:43:00,
2013-07-13 23:11:00,92.0,63.0,-100.00,SSE,161,4.0,14.0,39,0.00,,,0.00,0.000000,,2013-07-14 06:11:00,
2013-07-13 23:22:00,92.0,63.0,-100.00,SSE,161,4.0,14.0,39,0.00,,,0.00,0.000000,,2013-07-14 06:22:00,
2013-07-13 23:32:00,92.0,63.0,-100.00,SSE,161,4.0,14.0,39,0.00,,,0.00,0.000000,,2013-07-14 06:32:00,
2013-07-13 23:42:00,92.0,63.0,-100.00,SSE,161,4.0,14.0,39,0.00,,,0.00,0.000000,,2013-07-14 06:42:00,